Time;durP1;ratioP1;P1;durP2;ratioP2;P2;SDS_P1;SDS_P2;PMS_P1;PMS_P2;Temp;Humidity;BMP_temperature;BMP_pressure;BME280_temperature;BME280_humidity;BME280_pressure;Samples;Min_cycle;Max_cycle;Signal;HPM_P1;HPM_P2
2021/07/02 00:01:44;;;;;;;6.47;3.50;;;;;;;23.93;68.64;99689.48;1731690;82;20988;-66
2021/07/02 00:04:11;;;;;;;6.75;4.17;;;;;;;23.94;68.75;99688.97;1734327;82;21064;-66
2021/07/02 00:06:37;;;;;;;7.80;4.30;;;;;;;23.92;68.83;99682.98;1683686;83;21134;-66
2021/07/02 00:09:05;;;;;;;6.72;3.98;;;;;;;23.88;68.93;99683.16;1691867;84;21534;-66
2021/07/02 00:11:33;;;;;;;6.70;4.05;;;;;;;23.85;68.95;99676.89;1669145;85;21105;-66
2021/07/02 00:13:59;;;;;;;8.78;4.22;;;;;;;23.83;68.93;99669.59;1674666;85;21736;-66
2021/07/02 00:16:27;;;;;;;6.67;3.87;;;;;;;23.84;68.78;99672.05;1667898;84;21048;-67
2021/07/02 00:18:54;;;;;;;7.87;3.70;;;;;;;23.87;68.58;99667.57;1699352;83;21031;-67
2021/07/02 00:21:20;;;;;;;7.95;4.00;;;;;;;23.89;68.38;99664.13;1658112;84;21138;-67
2021/07/02 00:23:47;;;;;;;7.05;4.67;;;;;;;23.91;68.31;99670.08;1666963;85;21099;-67
2021/07/02 00:26:14;;;;;;;8.05;4.35;;;;;;;23.89;68.49;99662.78;1650288;85;21025;-67
2021/07/02 00:28:41;;;;;;;5.80;4.30;;;;;;;23.85;68.71;99664.80;1667771;85;21039;-66
2021/07/02 00:31:09;;;;;;;7.12;4.75;;;;;;;23.82;68.80;99668.78;1674997;85;21127;-67
2021/07/02 00:33:36;;;;;;;8.33;5.20;;;;;;;23.76;68.90;99677.70;1697152;83;21062;-65
2021/07/02 00:36:04;;;;;;;9.53;5.92;;;;;;;23.74;68.88;99677.92;1690664;83;21229;-66
2021/07/02 00:38:31;;;;;;;8.43;5.15;;;;;;;23.69;69.00;99671.08;1695974;83;21091;-66
2021/07/02 00:40:58;;;;;;;10.80;6.45;;;;;;;23.65;69.14;99670.41;1693068;83;21098;-66
2021/07/02 00:43:25;;;;;;;9.75;5.95;;;;;;;23.60;69.13;99681.00;1691163;83;21068;-66
2021/07/02 00:45:53;;;;;;;9.35;6.95;;;;;;;23.53;69.16;99668.47;1668882;83;21398;-66
2021/07/02 00:48:20;;;;;;;7.92;5.83;;;;;;;23.48;69.25;99674.23;1644186;85;21142;-67
2021/07/02 00:50:49;;;;;;;9.33;5.75;;;;;;;23.42;69.50;99666.56;1674444;84;21004;-67
2021/07/02 00:53:15;;;;;;;9.03;5.90;;;;;;;23.41;69.56;99668.94;1697873;84;21117;-66
2021/07/02 00:55:42;;;;;;;7.95;6.12;;;;;;;23.43;69.62;99668.19;1688797;84;21031;-66
2021/07/02 00:58:10;;;;;;;7.75;5.80;;;;;;;23.44;69.55;99663.13;1697265;81;21079;-66
2021/07/02 01:00:37;;;;;;;10.78;6.60;;;;;;;23.44;69.47;99652.38;1755078;79;21132;-67
2021/07/02 01:03:05;;;;;;;8.28;6.37;;;;;;;23.44;69.46;99652.38;1751914;80;21020;-68
2021/07/02 01:05:33;;;;;;;9.83;6.50;;;;;;;23.41;69.42;99646.12;1752659;80;21490;-68
2021/07/02 01:08:00;;;;;;;8.88;6.78;;;;;;;23.35;69.42;99637.11;1763495;80;21113;-67
2021/07/02 01:10:27;;;;;;;9.00;6.45;;;;;;;23.33;69.42;99647.76;1742237;80;21027;-68
2021/07/02 01:12:54;;;;;;;11.35;6.62;;;;;;;23.34;69.39;99645.39;1765031;80;22015;-68
2021/07/02 01:15:26;;;;;;;9.33;6.40;;;;;;;23.37;69.48;99644.41;1750889;80;21008;-67
2021/07/02 01:17:54;;;;;;;9.33;6.47;;;;;;;23.37;69.36;99640.91;1761221;79;21043;-67
2021/07/02 01:20:23;;;;;;;9.60;6.87;;;;;;;23.37;69.35;99644.41;1763921;80;21066;-67
2021/07/02 01:22:49;;;;;;;10.88;6.67;;;;;;;23.39;69.25;99642.03;1742111;80;21023;-68
2021/07/02 01:25:17;;;;;;;9.38;6.80;;;;;;;23.38;69.33;99643.87;1753609;80;21051;-67
2021/07/02 01:27:44;;;;;;;8.50;6.60;;;;;;;23.36;69.30;99633.36;1767498;79;21034;-67
2021/07/02 01:30:14;;;;;;;9.05;6.20;;;;;;;23.34;69.24;99628.75;1748557;80;21015;-67
2021/07/02 01:32:42;;;;;;;9.50;6.47;;;;;;;23.35;69.09;99626.38;1765295;79;21106;-67
2021/07/02 01:35:09;;;;;;;9.70;6.15;;;;;;;23.37;69.00;99629.64;1733667;80;21047;-67
2021/07/02 01:37:36;;;;;;;9.68;6.12;;;;;;;23.38;69.17;99633.14;1770175;80;21669;-67
2021/07/02 01:40:06;;;;;;;8.83;6.15;;;;;;;23.39;69.46;99632.64;1748518;80;20995;-67
2021/07/02 01:42:32;;;;;;;9.25;6.67;;;;;;;23.37;69.61;99633.67;1759528;80;21133;-67
2021/07/02 01:45:00;;;;;;;12.35;7.62;;;;;;;23.34;69.63;99631.97;1735838;80;21027;-67
2021/07/02 01:47:27;;;;;;;16.25;6.83;;;;;;;23.31;69.56;99640.46;1756227;80;21046;-67
2021/07/02 01:49:56;;;;;;;11.25;6.80;;;;;;;23.27;69.61;99648.14;1764433;79;21535;-67
2021/07/02 01:52:24;;;;;;;7.67;5.65;;;;;;;23.26;69.71;99651.86;1754244;79;21526;-67
2021/07/02 01:54:51;;;;;;;8.70;5.87;;;;;;;23.30;69.65;99653.07;1759144;80;21109;-67
2021/07/02 01:57:23;;;;;;;9.35;5.83;;;;;;;23.32;69.63;99664.39;1749775;80;21627;-68
2021/07/02 01:59:50;;;;;;;10.00;7.00;;;;;;;23.33;69.52;99665.20;1763352;79;21074;-68
2021/07/02 02:02:18;;;;;;;13.35;6.80;;;;;;;23.28;69.44;99665.06;1755721;80;21522;-67
2021/07/02 02:04:47;;;;;;;13.43;7.45;;;;;;;23.21;69.54;99666.48;1759101;80;21515;-67
2021/07/02 02:07:14;;;;;;;11.75;7.40;;;;;;;23.15;69.63;99657.47;1756927;80;21479;-69
2021/07/02 02:09:43;;;;;;;10.48;7.75;;;;;;;23.13;69.83;99652.01;1757098;79;21055;-67
2021/07/02 02:12:10;;;;;;;17.67;8.40;;;;;;;23.14;69.79;99647.77;1754655;80;21039;-67
2021/07/02 02:14:41;;;;;;;9.83;7.30;;;;;;;23.16;69.76;99642.17;1755447;80;21511;-71
2021/07/02 02:17:09;;;;;;;11.55;8.08;;;;;;;23.17;69.85;99650.00;1739507;80;21035;-68
2021/07/02 02:19:37;;;;;;;16.25;7.40;;;;;;;23.14;69.84;99658.50;1758148;80;21070;-70
2021/07/02 02:22:04;;;;;;;11.90;8.08;;;;;;;23.08;69.81;99666.12;1741576;80;21521;-68
2021/07/02 02:24:33;;;;;;;11.48;7.80;;;;;;;23.01;69.63;99674.70;1756867;79;21075;-68
2021/07/02 02:27:01;;;;;;;12.70;7.33;;;;;;;22.93;69.53;99670.96;1756504;80;21040;-73
2021/07/02 02:29:29;;;;;;;13.22;7.47;;;;;;;22.90;69.34;99680.81;1758016;79;21036;-70
2021/07/02 02:31:56;;;;;;;10.68;7.97;;;;;;;22.86;69.27;99676.39;1745316;80;21577;-68
2021/07/02 02:34:22;;;;;;;14.13;8.05;;;;;;;22.82;69.14;99676.55;1756181;80;21051;-68
2021/07/02 02:36:50;;;;;;;10.58;6.85;;;;;;;22.75;69.30;99687.86;1761227;80;21068;-68
2021/07/02 02:39:17;;;;;;;11.00;6.97;;;;;;;22.69;69.37;99695.43;1756517;80;21094;-73
2021/07/02 02:41:45;;;;;;;12.37;6.72;;;;;;;22.60;69.41;99692.20;1750480;79;21153;-69
2021/07/02 02:44:12;;;;;;;9.90;6.80;;;;;;;22.55;69.46;99695.53;1755974;80;21062;-70
2021/07/02 02:46:40;;;;;;;9.70;6.50;;;;;;;22.56;69.53;99693.66;1758453;80;21085;-69
2021/07/02 02:49:07;;;;;;;11.65;6.65;;;;;;;22.59;69.51;99701.28;1753476;80;21150;-69
2021/07/02 02:51:34;;;;;;;9.73;7.03;;;;;;;22.60;69.45;99700.25;1754829;80;21047;-71
2021/07/02 02:54:01;;;;;;;9.38;6.90;;;;;;;22.59;69.49;99705.30;1742788;80;21023;-71
2021/07/02 02:56:28;;;;;;;8.98;6.28;;;;;;;22.53;69.51;99704.85;1755128;80;21558;-69
2021/07/02 02:58:55;;;;;;;9.38;6.33;;;;;;;22.54;69.51;99713.18;1763694;79;21137;-68
2021/07/02 03:01:22;;;;;;;10.93;6.85;;;;;;;22.57;69.28;99720.79;1755082;79;21012;-72
2021/07/02 03:03:50;;;;;;;13.58;7.42;;;;;;;22.58;69.25;99727.80;1740898;80;22170;-67
2021/07/02 03:06:17;;;;;;;9.95;6.50;;;;;;;22.53;69.32;99728.45;1759015;80;21122;-67
2021/07/02 03:08:44;;;;;;;11.28;6.95;;;;;;;22.49;69.55;99725.89;1752101;80;21054;-68
2021/07/02 03:11:11;;;;;;;8.65;6.17;;;;;;;22.44;69.78;99725.22;1755853;80;21042;-65
2021/07/02 03:13:37;;;;;;;9.18;6.60;;;;;;;22.49;69.73;99724.55;1765613;80;21386;-67
2021/07/02 03:16:04;;;;;;;11.90;6.95;;;;;;;22.54;69.39;99723.91;1738668;79;21108;-70
2021/07/02 03:18:34;;;;;;;9.03;6.17;;;;;;;22.56;69.34;99725.34;1753675;80;21051;-65
2021/07/02 03:21:01;;;;;;;8.23;5.62;;;;;;;22.57;69.49;99722.94;1749037;80;21059;-67
2021/07/02 03:23:28;;;;;;;12.58;6.75;;;;;;;22.56;69.39;99727.18;1695146;82;21098;-66
2021/07/02 03:25:56;;;;;;;8.28;5.83;;;;;;;22.55;69.48;99734.41;1750291;80;21019;-69
2021/07/02 03:28:23;;;;;;;9.85;5.92;;;;;;;22.55;69.54;99728.23;1757184;79;22411;-68
2021/07/02 03:30:52;;;;;;;9.25;6.55;;;;;;;22.56;69.64;99736.06;1767478;80;21023;-70
2021/07/02 03:33:19;;;;;;;10.55;6.72;;;;;;;22.58;69.56;99735.85;1763692;79;21039;-71
2021/07/02 03:35:47;;;;;;;10.65;6.10;;;;;;;22.58;69.72;99736.66;1766398;80;21643;-71
2021/07/02 03:38:14;;;;;;;10.58;6.70;;;;;;;22.63;69.82;99731.99;1760362;79;21071;-70
2021/07/02 03:40:42;;;;;;;12.37;6.67;;;;;;;22.68;69.78;99738.02;1748649;80;22087;-71
2021/07/02 03:43:09;;;;;;;11.38;6.83;;;;;;;22.74;69.51;99734.48;1761136;79;21370;-68
2021/07/02 03:45:36;;;;;;;15.20;8.63;;;;;;;22.78;69.33;99734.36;1755702;80;21035;-67
2021/07/02 03:48:05;;;;;;;14.85;9.58;;;;;;;22.82;69.44;99736.36;1757537;80;21069;-68
2021/07/02 03:50:33;;;;;;;12.78;9.78;;;;;;;22.82;68.96;99731.00;1753058;79;21003;-67
2021/07/02 03:53:00;;;;;;;16.05;10.60;;;;;;;22.73;69.11;99732.83;1748541;80;21042;-57
2021/07/02 03:55:26;;;;;;;15.40;10.23;;;;;;;22.56;69.51;99729.86;1753091;80;21066;-67
2021/07/02 03:57:52;;;;;;;14.28;9.33;;;;;;;22.45;70.08;99739.44;1756581;79;21058;-65
2021/07/02 04:00:19;;;;;;;14.78;9.93;;;;;;;22.38;70.25;99740.81;1773058;80;21347;-63
2021/07/02 04:02:46;;;;;;;13.32;9.30;;;;;;;22.37;70.62;99738.34;1745955;80;21584;-66
2021/07/02 04:05:13;;;;;;;13.70;9.10;;;;;;;22.45;70.66;99746.14;1772797;78;21120;-71
2021/07/02 04:07:39;;;;;;;12.23;9.85;;;;;;;22.44;70.33;99749.84;1772951;78;21058;-64
2021/07/02 04:10:07;;;;;;;15.48;9.80;;;;;;;22.34;70.46;99747.66;1770761;80;21042;-66
2021/07/02 04:12:33;;;;;;;12.70;9.33;;;;;;;22.23;70.83;99749.12;1773241;79;21533;-63
2021/07/02 04:15:00;;;;;;;13.68;9.28;;;;;;;22.21;71.20;99754.41;1771360;79;21145;-64
2021/07/02 04:17:27;;;;;;;13.93;8.45;;;;;;;22.22;71.23;99754.69;1773161;79;21124;-63
2021/07/02 04:19:53;;;;;;;12.35;8.98;;;;;;;22.20;71.19;99752.22;1754690;80;21105;-62
2021/07/02 04:22:20;;;;;;;13.38;9.93;;;;;;;22.23;71.23;99753.66;1765420;79;21360;-61
2021/07/02 04:24:47;;;;;;;12.25;9.28;;;;;;;22.26;71.11;99750.56;1771508;78;21129;-62
2021/07/02 04:27:14;;;;;;;14.33;9.73;;;;;;;22.28;71.35;99752.53;1765774;78;21532;-67
2021/07/02 04:29:44;;;;;;;13.90;8.95;;;;;;;22.29;71.53;99747.45;1682242;82;21074;-66
2021/07/02 04:32:10;;;;;;;11.40;9.00;;;;;;;22.31;71.62;99745.41;1718686;82;21109;-65
2021/07/02 04:34:38;;;;;;;13.85;8.88;;;;;;;22.41;71.50;99744.94;1715953;82;21436;-64
2021/07/02 04:37:04;;;;;;;13.10;8.30;;;;;;;22.53;71.02;99741.05;1684333;83;21069;-63
2021/07/02 04:39:32;;;;;;;12.30;9.13;;;;;;;22.58;70.43;99733.98;1720220;82;20999;-65
2021/07/02 04:41:58;;;;;;;13.10;8.58;;;;;;;22.65;70.35;99740.64;1718266;82;21716;-66
2021/07/02 04:44:26;;;;;;;11.97;7.95;;;;;;;22.68;70.23;99742.89;1730541;82;21486;-64
2021/07/02 04:46:52;;;;;;;11.35;8.33;;;;;;;22.70;70.23;99737.31;1712147;82;21027;-62
2021/07/02 04:49:19;;;;;;;15.40;8.35;;;;;;;22.72;69.31;99741.40;1736627;81;21066;-63
2021/07/02 04:51:48;;;;;;;12.60;8.88;;;;;;;22.72;69.37;99747.29;1735644;81;21038;-62
2021/07/02 04:54:14;;;;;;;13.03;7.97;;;;;;;22.70;69.31;99739.46;1733902;82;21502;-73
2021/07/02 04:56:46;;;;;;;10.32;7.28;;;;;;;22.68;69.41;99738.86;1732911;80;21071;-69
2021/07/02 04:59:09;;;;;;;11.97;7.30;;;;;;;22.68;69.46;99734.84;1729229;80;21063;-65
2021/07/02 05:01:36;;;;;;;9.08;6.83;;;;;;;22.73;69.58;99737.69;1756673;79;21109;-66
2021/07/02 05:04:03;;;;;;;11.75;6.95;;;;;;;22.81;69.44;99742.78;1762117;79;21091;-67
2021/07/02 05:06:32;;;;;;;10.38;7.30;;;;;;;22.96;68.92;99741.12;1755650;79;21157;-65
2021/07/02 05:09:00;;;;;;;9.40;6.92;;;;;;;23.11;68.86;99743.47;1764148;79;21051;-68
2021/07/02 05:11:26;;;;;;;9.83;7.28;;;;;;;23.23;68.44;99746.77;1758487;79;21118;-66
2021/07/02 05:13:53;;;;;;;13.50;6.78;;;;;;;23.27;68.17;99747.45;1759756;79;20993;-71
2021/07/02 05:16:19;;;;;;;10.80;6.90;;;;;;;23.30;67.29;99740.80;1759416;79;21094;-62
2021/07/02 05:18:46;;;;;;;8.18;5.78;;;;;;;23.29;67.30;99744.55;1763971;79;21818;-66
2021/07/02 05:21:14;;;;;;;8.05;5.97;;;;;;;23.26;66.91;99751.17;1761589;79;21568;-63
2021/07/02 05:23:41;;;;;;;9.15;6.17;;;;;;;23.28;66.99;99745.58;1755836;79;21096;-64
2021/07/02 05:26:09;;;;;;;9.65;6.70;;;;;;;23.33;66.96;99748.42;1757459;79;21573;-65
2021/07/02 05:28:36;;;;;;;10.43;6.45;;;;;;;23.34;67.20;99752.22;1733357;80;21110;-64
2021/07/02 05:31:02;;;;;;;14.40;7.72;;;;;;;23.35;67.32;99755.72;1712780;79;21151;-66
2021/07/02 05:33:30;;;;;;;9.98;6.90;;;;;;;23.35;67.05;99759.75;1758585;79;21121;-65
2021/07/02 05:35:57;;;;;;;26.25;7.92;;;;;;;23.35;67.07;99765.96;1754086;79;21561;-74
2021/07/02 05:38:23;;;;;;;12.25;6.67;;;;;;;23.45;66.68;99774.01;1755411;80;21120;-67
2021/07/02 05:40:54;;;;;;;9.58;6.87;;;;;;;23.47;66.56;99770.57;1756206;79;21105;-66
2021/07/02 05:43:19;;;;;;;9.58;7.00;;;;;;;23.47;66.32;99767.39;1761248;79;21137;-66
2021/07/02 05:45:45;;;;;;;9.28;5.50;;;;;;;23.50;66.62;99772.31;1698373;82;21023;-66
2021/07/02 05:48:16;;;;;;;11.00;6.97;;;;;;;23.53;66.21;99777.22;1757832;79;21063;-67
2021/07/02 05:50:41;;;;;;;11.83;6.42;;;;;;;23.56;65.81;99775.44;1735193;80;21227;-65
2021/07/02 05:53:09;;;;;;;8.45;5.67;;;;;;;23.70;65.70;99783.34;1735991;80;21004;-67
2021/07/02 05:55:36;;;;;;;8.78;6.08;;;;;;;23.78;65.34;99780.36;1755336;79;21046;-65
2021/07/02 05:58:06;;;;;;;10.00;6.20;;;;;;;23.79;65.00;99780.67;1757442;79;21626;-69
2021/07/02 06:00:32;;;;;;;8.63;6.50;;;;;;;23.81;65.25;99779.11;1723085;80;21152;-67
2021/07/02 06:02:59;;;;;;;8.20;6.45;;;;;;;23.82;64.78;99791.01;1733791;80;21094;-64
2021/07/02 06:05:26;;;;;;;8.68;6.60;;;;;;;23.77;64.46;99777.90;1731697;80;21089;-70
2021/07/02 06:07:55;;;;;;;9.18;5.85;;;;;;;23.75;65.01;99782.15;1718220;80;22545;-68
2021/07/02 06:10:26;;;;;;;7.87;6.25;;;;;;;23.84;64.69;99778.16;1744992;80;21560;-68
2021/07/02 06:15:08;;;;;;;11.65;5.95;;;;;;;24.09;64.27;99779.91;1780961;78;22825;-70
2021/07/02 06:17:35;;;;;;;10.23;6.08;;;;;;;24.15;64.12;99779.55;1738755;80;22160;-68
2021/07/02 06:20:03;;;;;;;10.48;6.50;;;;;;;24.21;63.32;99784.83;1737217;80;21088;-64
2021/07/02 06:22:29;;;;;;;10.50;6.95;;;;;;;24.23;63.81;99775.20;1747529;80;22109;-61
2021/07/02 06:24:56;;;;;;;8.63;5.15;;;;;;;24.25;63.16;99769.88;1722898;80;21101;-58
2021/07/02 06:27:23;;;;;;;8.20;6.10;;;;;;;24.30;63.20;99775.39;1733395;80;21043;-62
2021/07/02 06:29:51;;;;;;;8.43;5.85;;;;;;;24.33;63.49;99766.06;1739839;80;21041;-61
2021/07/02 06:32:18;;;;;;;8.33;5.92;;;;;;;24.39;62.42;99764.31;1735137;80;22335;-62
2021/07/02 06:34:44;;;;;;;9.00;6.15;;;;;;;24.33;62.40;99767.41;1740536;80;21094;-63
2021/07/02 06:37:12;;;;;;;9.10;6.78;;;;;;;24.32;62.67;99762.25;1735607;80;21058;-62
2021/07/02 06:39:39;;;;;;;9.03;6.90;;;;;;;24.35;63.08;99770.67;1741401;80;21109;-60
2021/07/02 06:42:06;;;;;;;7.42;5.90;;;;;;;24.39;62.95;99773.72;1744987;80;21062;-63
2021/07/02 06:44:32;;;;;;;10.50;6.55;;;;;;;24.40;62.58;99773.50;1748326;80;21072;-62
2021/07/02 06:46:59;;;;;;;10.50;6.42;;;;;;;24.49;62.81;99772.64;1738744;80;21093;-62
2021/07/02 06:49:26;;;;;;;7.92;6.20;;;;;;;24.58;61.85;99770.47;1743974;80;21604;-62
2021/07/02 06:51:55;;;;;;;9.10;6.50;;;;;;;24.64;62.10;99766.34;1744053;80;21044;-62
2021/07/02 06:54:22;;;;;;;9.83;5.75;;;;;;;24.74;61.60;99758.23;1749641;80;21109;-61
2021/07/02 06:57:03;;;;;;;9.98;6.17;;;;;;;24.83;61.59;99753.64;1743578;80;21141;-61
2021/07/02 06:59:32;;;;;;;30.32;9.95;;;;;;;24.88;61.32;99742.19;1726053;81;21459;-58
2021/07/02 07:02:00;;;;;;;10.53;6.00;;;;;;;24.96;61.37;99751.23;1723259;81;21607;-62
2021/07/02 07:04:34;;;;;;;7.78;6.50;;;;;;;25.03;61.06;99756.00;1747970;81;21125;-63
2021/07/02 07:06:55;;;;;;;9.10;5.95;;;;;;;25.14;60.34;99753.00;1742248;80;21091;-61
2021/07/02 07:09:22;;;;;;;10.53;6.30;;;;;;;25.18;60.15;99752.01;1738442;80;22150;-62
2021/07/02 07:11:51;;;;;;;9.45;5.55;;;;;;;25.15;59.62;99755.16;1748484;80;21074;-64
2021/07/02 07:14:17;;;;;;;10.63;6.90;;;;;;;25.11;59.57;99756.70;1730841;80;21141;-70
2021/07/02 07:16:44;;;;;;;8.08;6.58;;;;;;;25.16;59.65;99754.93;1735169;80;21589;-64
2021/07/02 07:19:11;;;;;;;12.18;7.00;;;;;;;25.22;59.92;99748.62;1732969;80;21604;-67
2021/07/02 07:21:38;;;;;;;14.35;8.15;;;;;;;25.26;60.18;99754.38;1722059;81;21094;-67
2021/07/02 07:24:05;;;;;;;35.58;10.68;;;;;;;25.27;59.61;99746.61;1731866;80;21106;-66
2021/07/02 07:26:31;;;;;;;10.25;7.30;;;;;;;25.24;59.52;99751.08;1715917;82;21066;-59
2021/07/02 07:28:58;;;;;;;8.98;6.00;;;;;;;25.22;59.31;99747.81;1723319;80;21463;-66
2021/07/02 07:31:24;;;;;;;9.73;5.95;;;;;;;25.29;59.48;99738.30;1729731;81;21078;-70
2021/07/02 07:33:52;;;;;;;21.85;8.53;;;;;;;25.45;58.92;99738.09;1720572;82;21417;-67
2021/07/02 07:36:21;;;;;;;36.50;12.85;;;;;;;25.50;59.04;99736.84;1729180;80;21028;-64
2021/07/02 07:38:48;;;;;;;33.50;9.48;;;;;;;25.43;58.86;99735.63;1740602;81;21567;-68
2021/07/02 07:41:17;;;;;;;18.60;7.70;;;;;;;25.37;59.34;99741.44;1728781;80;21005;-61
2021/07/02 07:43:45;;;;;;;13.40;6.97;;;;;;;25.39;59.27;99745.25;1733605;80;21016;-62
2021/07/02 07:46:11;;;;;;;9.38;7.22;;;;;;;25.43;59.32;99740.20;1727962;80;21266;-63
2021/07/02 07:48:42;;;;;;;8.13;6.85;;;;;;;25.49;58.88;99740.08;1733763;80;21066;-65
2021/07/02 07:51:18;;;;;;;7.87;6.03;;;;;;;25.61;59.02;99745.44;1718563;81;21087;-63
2021/07/02 07:53:43;;;;;;;17.23;7.95;;;;;;;25.73;58.47;99742.17;1728041;80;21114;-63
2021/07/02 07:56:11;;;;;;;23.70;9.25;;;;;;;25.78;58.63;99736.08;1720810;81;21079;-64
2021/07/02 07:58:38;;;;;;;9.25;6.42;;;;;;;25.77;58.66;99747.40;1726572;81;21842;-66
2021/07/02 08:01:04;;;;;;;9.95;7.05;;;;;;;25.79;58.23;99747.16;1730415;82;21149;-63
2021/07/02 08:03:30;;;;;;;8.53;6.35;;;;;;;25.81;57.98;99744.23;1728984;80;21140;-62
2021/07/02 08:05:57;;;;;;;11.80;6.35;;;;;;;25.83;57.43;99752.34;1733432;80;21087;-62
2021/07/02 08:08:24;;;;;;;11.12;6.83;;;;;;;25.90;57.25;99748.17;1723001;80;21173;-62
2021/07/02 08:10:51;;;;;;;8.15;6.40;;;;;;;26.00;57.42;99752.44;1733424;80;22259;-67
2021/07/02 08:13:20;;;;;;;9.80;5.95;;;;;;;26.03;56.81;99760.05;1730530;80;21557;-67
2021/07/02 08:15:47;;;;;;;10.53;6.67;;;;;;;25.98;56.93;99762.65;1747227;80;21039;-66
2021/07/02 08:18:13;;;;;;;12.55;6.35;;;;;;;25.96;57.18;99764.77;1730883;81;21082;-68
2021/07/02 08:20:40;;;;;;;9.38;6.72;;;;;;;25.97;56.81;99775.02;1748672;80;21034;-69
2021/07/02 08:23:09;;;;;;;9.63;6.87;;;;;;;25.93;57.02;99774.65;1742964;80;21101;-70
2021/07/02 08:25:37;;;;;;;9.85;7.25;;;;;;;25.91;57.23;99776.77;1744938;80;21035;-68
2021/07/02 08:30:50;;;;;;;12.25;7.10;;;;;;;25.77;57.60;99777.04;1737003;80;21679;-71
2021/07/02 08:33:21;;;;;;;8.40;6.50;;;;;;;25.72;58.16;99776.94;1740184;80;21062;-72
2021/07/02 08:35:49;;;;;;;9.13;6.70;;;;;;;25.70;57.92;99774.17;1741143;80;21105;-66
2021/07/02 08:38:16;;;;;;;9.78;6.10;;;;;;;25.72;57.90;99772.89;1746982;80;21061;-66
2021/07/02 08:40:43;;;;;;;8.05;6.20;;;;;;;25.76;57.85;99779.43;1744748;80;21344;-66
2021/07/02 08:43:10;;;;;;;8.43;6.62;;;;;;;25.82;57.98;99774.14;1740330;80;21081;-68
2021/07/02 08:45:37;;;;;;;8.85;6.55;;;;;;;25.86;57.38;99770.74;1744145;81;21062;-69
2021/07/02 08:48:06;;;;;;;7.95;6.08;;;;;;;25.87;57.41;99763.47;1745384;80;21813;-77
2021/07/02 08:50:34;;;;;;;8.65;6.35;;;;;;;25.89;57.87;99774.82;1742814;80;21090;-67
2021/07/02 08:53:01;;;;;;;7.72;6.33;;;;;;;25.90;57.18;99766.50;1743396;80;21097;-67
2021/07/02 08:55:28;;;;;;;10.80;7.00;;;;;;;25.90;57.19;99775.93;1747657;80;21714;-71
2021/07/02 08:57:55;;;;;;;8.85;6.85;;;;;;;25.88;57.63;99775.36;1745220;80;21601;-69
2021/07/02 09:00:22;;;;;;;9.28;7.08;;;;;;;25.89;57.24;99777.01;1747353;80;22221;-77
2021/07/02 09:02:49;;;;;;;8.48;6.75;;;;;;;25.89;57.09;99782.91;1744251;80;21351;-68
2021/07/02 09:05:44;;;;;;;11.60;8.03;;;;;;;25.89;57.18;99789.64;1744981;80;21037;-65
2021/07/02 09:08:14;;;;;;;11.48;6.80;;;;;;;25.85;57.40;99790.66;1742766;81;21011;-70
2021/07/02 09:10:41;;;;;;;8.90;6.70;;;;;;;25.82;57.17;99794.35;1750016;80;21058;-65
2021/07/02 09:13:07;;;;;;;8.93;6.28;;;;;;;25.75;57.26;99787.21;1738810;80;21359;-65
2021/07/02 09:15:48;;;;;;;10.20;6.87;;;;;;;25.71;57.41;99795.49;1746120;80;20999;-67
2021/07/02 09:18:16;;;;;;;11.95;6.53;;;;;;;25.68;57.31;99793.27;1747222;81;21082;-72
2021/07/02 09:20:44;;;;;;;8.83;7.42;;;;;;;25.65;57.13;99780.80;1748978;80;21062;-68
2021/07/02 09:23:13;;;;;;;8.08;6.15;;;;;;;25.62;57.44;99777.23;1744963;80;21098;-65
2021/07/02 09:25:52;;;;;;;11.85;6.87;;;;;;;25.64;57.13;99775.95;1733499;80;21854;-69
2021/07/02 09:28:20;;;;;;;8.55;6.37;;;;;;;25.71;57.10;99769.89;1724645;81;21066;-70
2021/07/02 09:30:49;;;;;;;9.90;6.75;;;;;;;25.76;56.91;99775.39;1736193;80;21067;-69
2021/07/02 09:33:20;;;;;;;11.55;6.50;;;;;;;25.76;56.36;99771.89;1740223;80;21077;-68
2021/07/02 09:35:51;;;;;;;8.90;6.42;;;;;;;25.76;56.61;99763.80;1721964;81;21074;-71
2021/07/02 09:38:20;;;;;;;11.18;6.37;;;;;;;25.79;56.26;99764.67;1739544;81;21065;-66
2021/07/02 09:40:47;;;;;;;9.05;5.80;;;;;;;25.83;55.76;99772.56;1724428;80;21035;-67
2021/07/02 09:43:18;;;;;;;9.35;6.60;;;;;;;25.84;55.64;99784.15;1743118;80;21066;-67
2021/07/02 09:45:54;;;;;;;8.73;7.10;;;;;;;25.85;56.10;99781.76;1742323;80;21669;-71
2021/07/02 09:48:28;;;;;;;8.53;6.67;;;;;;;25.84;56.03;99784.15;1738422;80;21527;-76
2021/07/02 09:50:57;;;;;;;9.08;6.87;;;;;;;25.84;56.34;99776.06;1729983;81;21737;-67
2021/07/02 09:53:33;;;;;;;9.13;6.25;;;;;;;25.86;56.34;99779.36;1743848;80;21564;-69
2021/07/02 09:56:04;;;;;;;9.70;7.22;;;;;;;25.89;55.85;99781.05;1744252;81;21105;-69
2021/07/02 09:58:39;;;;;;;8.88;6.70;;;;;;;25.90;56.16;99788.59;1741985;80;21019;-67
2021/07/02 10:01:07;;;;;;;7.83;6.17;;;;;;;25.89;55.54;99782.91;1742418;80;21101;-67
2021/07/02 10:03:39;;;;;;;9.03;6.75;;;;;;;25.86;55.89;99787.45;1741707;80;21042;-65
2021/07/02 10:06:28;;;;;;;9.18;6.33;;;;;;;25.86;55.81;99779.36;1746683;80;22027;-66
2021/07/02 10:08:59;;;;;;;8.55;6.25;;;;;;;25.90;56.09;99777.81;1755580;80;21639;-69
2021/07/02 10:11:24;;;;;;;9.75;6.62;;;;;;;25.92;56.10;99770.30;1738507;80;21309;-68
2021/07/02 10:13:51;;;;;;;13.60;7.90;;;;;;;25.99;55.63;99778.28;1745335;80;21082;-69
2021/07/02 10:16:19;;;;;;;10.95;6.95;;;;;;;26.02;56.11;99778.63;1731684;80;21108;-73
2021/07/02 10:18:58;;;;;;;8.85;6.78;;;;;;;26.06;55.72;99779.80;1735699;81;21075;-67
2021/07/02 10:21:24;;;;;;;9.23;6.65;;;;;;;26.07;54.93;99773.33;1731874;80;21114;-65
2021/07/02 10:23:54;;;;;;;12.30;7.58;;;;;;;26.04;54.76;99763.55;1728774;81;21082;-62
2021/07/02 10:26:22;;;;;;;10.78;6.17;;;;;;;26.02;55.25;99763.80;1725024;80;21008;-65
2021/07/02 10:28:48;;;;;;;8.23;6.35;;;;;;;26.06;55.07;99770.90;1728994;80;21431;-63
2021/07/02 10:31:17;;;;;;;7.28;5.40;;;;;;;26.08;55.25;99774.17;1731809;82;21114;-64
2021/07/02 10:33:48;;;;;;;8.35;6.45;;;;;;;26.13;54.51;99777.77;1721418;81;21123;-68
2021/07/02 10:36:16;;;;;;;9.18;6.40;;;;;;;26.17;54.28;99779.45;1736872;80;21093;-66
2021/07/02 10:38:48;;;;;;;8.08;5.83;;;;;;;26.23;54.11;99776.34;1729751;80;21016;-64
2021/07/02 10:41:21;;;;;;;9.03;6.83;;;;;;;26.28;54.08;99772.39;1730908;80;21828;-69
2021/07/02 10:44:14;;;;;;;7.22;5.75;;;;;;;26.34;54.16;99774.09;1728698;81;21032;-63
2021/07/02 10:46:43;;;;;;;8.28;5.42;;;;;;;26.36;53.96;99772.52;1740379;80;21111;-66
2021/07/02 10:49:11;;;;;;;8.43;6.35;;;;;;;26.37;53.31;99772.81;1733761;80;21067;-63
2021/07/02 10:51:45;;;;;;;8.83;5.58;;;;;;;26.40;53.02;99769.64;1736661;80;21061;-66
2021/07/02 10:54:19;;;;;;;12.68;5.58;;;;;;;26.44;53.24;99768.08;1729759;80;21104;-61
2021/07/02 10:57:00;;;;;;;9.10;5.78;;;;;;;26.48;53.00;99764.66;1736318;80;21055;-65
2021/07/02 10:59:46;;;;;;;8.83;5.08;;;;;;;26.54;52.55;99757.46;1728015;81;21074;-69
2021/07/02 11:02:22;;;;;;;6.65;5.10;;;;;;;26.62;52.11;99758.41;1731261;80;21067;-64
2021/07/02 11:04:52;;;;;;;;;;;;;;;26.67;52.11;99755.83;1735970;81;21024;-68
2021/07/02 11:07:29;;;;;;;8.68;5.30;;;;;;;26.71;51.04;99749.95;1729578;82;21155;-61
2021/07/02 11:10:00;;;;;;;12.68;5.22;;;;;;;26.66;51.73;99746.12;1729035;81;21051;-64
2021/07/02 11:12:28;;;;;;;7.80;5.65;;;;;;;26.71;51.95;99741.86;1723715;80;21002;-62
2021/07/02 11:15:03;;;;;;;8.33;5.30;;;;;;;26.77;52.02;99738.19;1731262;81;21109;-62
2021/07/02 11:17:49;;;;;;;7.62;5.33;;;;;;;26.84;51.46;99732.89;1729739;81;21431;-63
2021/07/02 11:20:24;;;;;;;7.55;5.45;;;;;;;26.87;51.66;99729.70;1699329;82;21249;-65
2021/07/02 11:23:02;;;;;;;8.80;5.47;;;;;;;26.93;51.45;99729.23;1729931;80;27224;-63
2021/07/02 11:26:02;;;;;;;8.28;5.33;;;;;;;26.91;50.58;99728.67;1734968;81;21059;-64
2021/07/02 11:28:11;;;;;;;7.78;5.10;;;;;;;26.93;50.71;99724.38;1705723;82;21074;-63
2021/07/02 11:30:42;;;;;;;8.00;5.80;;;;;;;26.95;50.72;99724.44;1726881;80;21062;-66
2021/07/02 11:33:15;;;;;;;9.48;5.40;;;;;;;26.96;50.35;99721.19;1724919;80;22328;-65
2021/07/02 11:35:44;;;;;;;7.90;4.65;;;;;;;26.96;50.54;99715.25;1729785;80;21047;-70
2021/07/02 11:38:16;;;;;;;8.33;4.62;;;;;;;27.03;50.41;99720.48;1732226;80;21082;-75
2021/07/02 11:41:00;;;;;;;6.90;4.40;;;;;;;27.06;49.63;99716.75;1740806;80;21026;-64